sensor_id;sensor_type;location;lat;lon;timestamp;P1;durP1;ratioP1;P2;durP2;ratioP2
5967;SDS011;3010;51.028;4.170;2023-07-30T00:00:25;9.77;;;4.10;;
5967;SDS011;3010;51.028;4.170;2023-07-30T00:02:51;12.60;;;4.13;;
5967;SDS011;3010;51.028;4.170;2023-07-30T00:05:18;5.43;;;3.70;;
5967;SDS011;3010;51.028;4.170;2023-07-30T00:07:45;10.43;;;4.27;;
5967;SDS011;3010;51.028;4.170;2023-07-30T00:10:11;7.60;;;3.63;;
5967;SDS011;3010;51.028;4.170;2023-07-30T00:12:38;10.97;;;3.50;;
5967;SDS011;3010;51.028;4.170;2023-07-30T00:15:05;10.00;;;4.20;;
5967;SDS011;3010;51.028;4.170;2023-07-30T00:17:31;9.68;;;4.22;;
5967;SDS011;3010;51.028;4.170;2023-07-30T00:19:58;6.67;;;3.47;;
5967;SDS011;3010;51.028;4.170;2023-07-30T00:22:24;11.93;;;4.00;;
5967;SDS011;3010;51.028;4.170;2023-07-30T00:24:51;10.67;;;4.00;;
5967;SDS011;3010;51.028;4.170;2023-07-30T00:27:18;13.23;;;4.00;;
5967;SDS011;3010;51.028;4.170;2023-07-30T00:29:44;13.13;;;3.63;;
5967;SDS011;3010;51.028;4.170;2023-07-30T00:32:11;11.07;;;3.40;;
5967;SDS011;3010;51.028;4.170;2023-07-30T00:34:37;13.53;;;3.67;;
5967;SDS011;3010;51.028;4.170;2023-07-30T00:37:04;11.70;;;3.90;;
5967;SDS011;3010;51.028;4.170;2023-07-30T00:39:31;7.43;;;3.27;;
5967;SDS011;3010;51.028;4.170;2023-07-30T00:41:57;12.53;;;3.93;;
5967;SDS011;3010;51.028;4.170;2023-07-30T00:44:24;10.77;;;4.00;;
5967;SDS011;3010;51.028;4.170;2023-07-30T00:46:50;10.90;;;3.43;;
5967;SDS011;3010;51.028;4.170;2023-07-30T00:49:17;8.80;;;3.57;;
5967;SDS011;3010;51.028;4.170;2023-07-30T00:51:44;12.00;;;4.00;;
5967;SDS011;3010;51.028;4.170;2023-07-30T00:54:10;9.23;;;3.20;;
5967;SDS011;3010;51.028;4.170;2023-07-30T00:56:37;9.60;;;3.60;;
5967;SDS011;3010;51.028;4.170;2023-07-30T00:59:03;9.10;;;3.67;;
5967;SDS011;3010;51.028;4.170;2023-07-30T01:01:30;8.83;;;3.00;;
5967;SDS011;3010;51.028;4.170;2023-07-30T01:03:56;15.97;;;3.50;;
5967;SDS011;3010;51.028;4.170;2023-07-30T01:06:23;12.73;;;3.50;;
5967;SDS011;3010;51.028;4.170;2023-07-30T01:08:50;10.17;;;3.80;;
5967;SDS011;3010;51.028;4.170;2023-07-30T01:11:16;10.40;;;3.40;;
5967;SDS011;3010;51.028;4.170;2023-07-30T01:13:43;12.43;;;3.30;;
5967;SDS011;3010;51.028;4.170;2023-07-30T01:16:09;12.77;;;3.77;;
5967;SDS011;3010;51.028;4.170;2023-07-30T01:18:36;9.63;;;3.77;;
5967;SDS011;3010;51.028;4.170;2023-07-30T01:21:03;9.30;;;3.33;;
5967;SDS011;3010;51.028;4.170;2023-07-30T01:23:29;14.10;;;3.80;;
5967;SDS011;3010;51.028;4.170;2023-07-30T01:25:59;13.33;;;3.93;;
5967;SDS011;3010;51.028;4.170;2023-07-30T01:28:25;9.37;;;3.30;;
5967;SDS011;3010;51.028;4.170;2023-07-30T01:30:52;13.77;;;3.50;;
5967;SDS011;3010;51.028;4.170;2023-07-30T01:33:18;7.40;;;2.50;;
5967;SDS011;3010;51.028;4.170;2023-07-30T01:35:45;10.07;;;3.07;;
5967;SDS011;3010;51.028;4.170;2023-07-30T01:38:11;9.00;;;3.70;;
5967;SDS011;3010;51.028;4.170;2023-07-30T01:40:38;17.03;;;3.60;;
5967;SDS011;3010;51.028;4.170;2023-07-30T01:43:04;10.13;;;3.23;;
5967;SDS011;3010;51.028;4.170;2023-07-30T01:45:31;8.67;;;3.20;;
5967;SDS011;3010;51.028;4.170;2023-07-30T01:47:58;8.97;;;2.80;;
5967;SDS011;3010;51.028;4.170;2023-07-30T01:50:24;14.63;;;3.07;;
5967;SDS011;3010;51.028;4.170;2023-07-30T01:52:51;12.90;;;3.23;;
5967;SDS011;3010;51.028;4.170;2023-07-30T01:55:17;8.60;;;3.33;;
5967;SDS011;3010;51.028;4.170;2023-07-30T01:57:44;13.17;;;3.93;;
5967;SDS011;3010;51.028;4.170;2023-07-30T02:00:11;14.20;;;3.30;;
5967;SDS011;3010;51.028;4.170;2023-07-30T02:02:37;9.10;;;3.60;;
5967;SDS011;3010;51.028;4.170;2023-07-30T02:05:04;9.53;;;3.93;;
5967;SDS011;3010;51.028;4.170;2023-07-30T02:07:31;12.03;;;3.10;;
5967;SDS011;3010;51.028;4.170;2023-07-30T02:09:57;12.77;;;3.47;;
5967;SDS011;3010;51.028;4.170;2023-07-30T02:12:24;13.77;;;3.73;;
5967;SDS011;3010;51.028;4.170;2023-07-30T02:14:50;12.90;;;4.40;;
5967;SDS011;3010;51.028;4.170;2023-07-30T02:17:17;11.67;;;3.50;;
5967;SDS011;3010;51.028;4.170;2023-07-30T02:19:44;12.90;;;3.53;;
5967;SDS011;3010;51.028;4.170;2023-07-30T02:22:10;15.20;;;3.67;;
5967;SDS011;3010;51.028;4.170;2023-07-30T02:24:37;11.60;;;3.53;;
5967;SDS011;3010;51.028;4.170;2023-07-30T02:27:03;14.97;;;3.63;;
5967;SDS011;3010;51.028;4.170;2023-07-30T02:29:31;9.17;;;3.00;;
5967;SDS011;3010;51.028;4.170;2023-07-30T02:31:58;9.30;;;3.50;;
5967;SDS011;3010;51.028;4.170;2023-07-30T02:34:24;14.53;;;3.80;;
5967;SDS011;3010;51.028;4.170;2023-07-30T02:36:51;9.67;;;3.27;;
5967;SDS011;3010;51.028;4.170;2023-07-30T02:39:18;17.00;;;3.53;;
5967;SDS011;3010;51.028;4.170;2023-07-30T02:41:44;10.23;;;4.10;;
5967;SDS011;3010;51.028;4.170;2023-07-30T02:44:11;12.13;;;3.50;;
5967;SDS011;3010;51.028;4.170;2023-07-30T02:46:37;7.63;;;3.13;;
5967;SDS011;3010;51.028;4.170;2023-07-30T02:49:04;16.77;;;4.00;;
5967;SDS011;3010;51.028;4.170;2023-07-30T02:51:31;14.07;;;3.80;;
5967;SDS011;3010;51.028;4.170;2023-07-30T02:53:57;9.83;;;3.47;;
5967;SDS011;3010;51.028;4.170;2023-07-30T02:56:24;10.97;;;3.00;;
5967;SDS011;3010;51.028;4.170;2023-07-30T02:58:50;8.17;;;2.60;;
5967;SDS011;3010;51.028;4.170;2023-07-30T03:01:17;17.03;;;3.73;;
5967;SDS011;3010;51.028;4.170;2023-07-30T03:03:43;10.57;;;3.27;;
5967;SDS011;3010;51.028;4.170;2023-07-30T03:06:10;12.37;;;3.43;;
5967;SDS011;3010;51.028;4.170;2023-07-30T03:08:37;13.37;;;3.90;;
5967;SDS011;3010;51.028;4.170;2023-07-30T03:11:03;14.30;;;3.30;;
5967;SDS011;3010;51.028;4.170;2023-07-30T03:13:30;12.80;;;3.50;;
5967;SDS011;3010;51.028;4.170;2023-07-30T03:15:56;9.53;;;3.10;;
5967;SDS011;3010;51.028;4.170;2023-07-30T03:18:23;12.77;;;4.17;;
5967;SDS011;3010;51.028;4.170;2023-07-30T03:20:50;14.63;;;3.20;;
5967;SDS011;3010;51.028;4.170;2023-07-30T03:23:16;10.83;;;3.50;;
5967;SDS011;3010;51.028;4.170;2023-07-30T03:25:43;14.03;;;3.43;;
5967;SDS011;3010;51.028;4.170;2023-07-30T03:28:09;17.63;;;4.07;;
5967;SDS011;3010;51.028;4.170;2023-07-30T03:30:36;8.93;;;2.93;;
5967;SDS011;3010;51.028;4.170;2023-07-30T03:33:03;10.27;;;3.57;;
5967;SDS011;3010;51.028;4.170;2023-07-30T03:35:29;9.50;;;3.40;;
5967;SDS011;3010;51.028;4.170;2023-07-30T03:37:56;10.50;;;3.37;;
5967;SDS011;3010;51.028;4.170;2023-07-30T03:40:22;13.80;;;3.17;;
5967;SDS011;3010;51.028;4.170;2023-07-30T03:42:49;19.20;;;3.80;;
5967;SDS011;3010;51.028;4.170;2023-07-30T03:45:16;11.47;;;3.40;;
5967;SDS011;3010;51.028;4.170;2023-07-30T03:47:42;10.40;;;3.20;;
5967;SDS011;3010;51.028;4.170;2023-07-30T03:50:09;13.77;;;3.77;;
5967;SDS011;3010;51.028;4.170;2023-07-30T03:52:35;14.13;;;3.57;;
5967;SDS011;3010;51.028;4.170;2023-07-30T03:55:02;11.97;;;3.17;;
5967;SDS011;3010;51.028;4.170;2023-07-30T03:57:29;11.03;;;3.40;;
5967;SDS011;3010;51.028;4.170;2023-07-30T03:59:55;10.47;;;3.60;;
5967;SDS011;3010;51.028;4.170;2023-07-30T04:02:22;21.10;;;3.57;;
5967;SDS011;3010;51.028;4.170;2023-07-30T04:04:48;19.83;;;4.43;;
5967;SDS011;3010;51.028;4.170;2023-07-30T04:07:15;15.27;;;3.63;;
5967;SDS011;3010;51.028;4.170;2023-07-30T04:09:42;16.03;;;3.40;;
5967;SDS011;3010;51.028;4.170;2023-07-30T04:12:08;13.03;;;3.73;;
5967;SDS011;3010;51.028;4.170;2023-07-30T04:14:35;7.53;;;3.00;;
5967;SDS011;3010;51.028;4.170;2023-07-30T04:17:01;9.83;;;3.10;;
5967;SDS011;3010;51.028;4.170;2023-07-30T04:19:28;11.87;;;3.30;;
5967;SDS011;3010;51.028;4.170;2023-07-30T04:21:55;16.60;;;4.10;;
5967;SDS011;3010;51.028;4.170;2023-07-30T04:24:22;14.60;;;3.80;;
5967;SDS011;3010;51.028;4.170;2023-07-30T04:26:48;13.80;;;3.37;;
5967;SDS011;3010;51.028;4.170;2023-07-30T04:29:15;17.97;;;3.93;;
5967;SDS011;3010;51.028;4.170;2023-07-30T04:31:42;14.87;;;3.97;;
5967;SDS011;3010;51.028;4.170;2023-07-30T04:34:08;19.50;;;3.80;;
5967;SDS011;3010;51.028;4.170;2023-07-30T04:36:35;21.57;;;4.00;;
5967;SDS011;3010;51.028;4.170;2023-07-30T04:39:01;22.50;;;4.33;;
5967;SDS011;3010;51.028;4.170;2023-07-30T04:41:28;14.77;;;3.73;;
5967;SDS011;3010;51.028;4.170;2023-07-30T04:43:55;21.80;;;4.13;;
5967;SDS011;3010;51.028;4.170;2023-07-30T04:46:21;12.50;;;3.67;;
5967;SDS011;3010;51.028;4.170;2023-07-30T04:48:48;12.57;;;3.50;;
5967;SDS011;3010;51.028;4.170;2023-07-30T04:51:14;16.77;;;3.60;;
5967;SDS011;3010;51.028;4.170;2023-07-30T04:53:41;14.40;;;3.73;;
5967;SDS011;3010;51.028;4.170;2023-07-30T04:56:08;17.57;;;3.90;;
5967;SDS011;3010;51.028;4.170;2023-07-30T04:58:34;13.27;;;3.33;;
5967;SDS011;3010;51.028;4.170;2023-07-30T05:01:01;12.33;;;3.67;;
5967;SDS011;3010;51.028;4.170;2023-07-30T05:03:27;17.57;;;4.07;;
5967;SDS011;3010;51.028;4.170;2023-07-30T05:05:54;13.57;;;3.70;;
5967;SDS011;3010;51.028;4.170;2023-07-30T05:08:21;12.40;;;4.00;;
5967;SDS011;3010;51.028;4.170;2023-07-30T05:10:47;16.90;;;4.90;;
5967;SDS011;3010;51.028;4.170;2023-07-30T05:13:14;20.90;;;4.33;;
5967;SDS011;3010;51.028;4.170;2023-07-30T05:15:40;10.73;;;3.83;;
5967;SDS011;3010;51.028;4.170;2023-07-30T05:18:07;11.53;;;3.57;;
5967;SDS011;3010;51.028;4.170;2023-07-30T05:20:34;14.40;;;3.70;;
5967;SDS011;3010;51.028;4.170;2023-07-30T05:23:00;19.60;;;4.87;;
5967;SDS011;3010;51.028;4.170;2023-07-30T05:25:27;14.23;;;3.40;;
5967;SDS011;3010;51.028;4.170;2023-07-30T05:27:53;11.70;;;4.23;;
5967;SDS011;3010;51.028;4.170;2023-07-30T05:30:20;15.17;;;3.63;;
5967;SDS011;3010;51.028;4.170;2023-07-30T05:32:47;14.00;;;3.53;;
5967;SDS011;3010;51.028;4.170;2023-07-30T05:35:13;10.07;;;3.13;;
5967;SDS011;3010;51.028;4.170;2023-07-30T05:37:40;19.63;;;3.43;;
5967;SDS011;3010;51.028;4.170;2023-07-30T05:40:07;17.90;;;3.53;;
5967;SDS011;3010;51.028;4.170;2023-07-30T05:42:33;21.27;;;4.07;;
5967;SDS011;3010;51.028;4.170;2023-07-30T05:45:00;17.00;;;3.40;;
5967;SDS011;3010;51.028;4.170;2023-07-30T05:47:26;16.07;;;3.40;;
5967;SDS011;3010;51.028;4.170;2023-07-30T05:49:53;20.47;;;4.17;;
5967;SDS011;3010;51.028;4.170;2023-07-30T05:52:20;13.33;;;3.83;;
5967;SDS011;3010;51.028;4.170;2023-07-30T05:54:46;15.50;;;3.33;;
5967;SDS011;3010;51.028;4.170;2023-07-30T05:57:13;17.10;;;4.13;;
5967;SDS011;3010;51.028;4.170;2023-07-30T05:59:39;18.77;;;4.37;;
5967;SDS011;3010;51.028;4.170;2023-07-30T06:02:06;18.80;;;4.73;;
5967;SDS011;3010;51.028;4.170;2023-07-30T06:04:33;16.03;;;3.90;;
5967;SDS011;3010;51.028;4.170;2023-07-30T06:06:59;22.43;;;4.73;;
5967;SDS011;3010;51.028;4.170;2023-07-30T06:09:26;37.87;;;9.27;;
5967;SDS011;3010;51.028;4.170;2023-07-30T06:11:52;11.13;;;3.40;;
5967;SDS011;3010;51.028;4.170;2023-07-30T06:14:19;14.23;;;3.63;;
5967;SDS011;3010;51.028;4.170;2023-07-30T06:16:45;13.63;;;2.83;;
5967;SDS011;3010;51.028;4.170;2023-07-30T06:19:12;13.13;;;3.53;;
5967;SDS011;3010;51.028;4.170;2023-07-30T06:21:39;12.80;;;3.07;;
5967;SDS011;3010;51.028;4.170;2023-07-30T06:24:05;10.50;;;3.63;;
5967;SDS011;3010;51.028;4.170;2023-07-30T06:26:32;19.50;;;3.80;;
5967;SDS011;3010;51.028;4.170;2023-07-30T06:28:58;12.20;;;4.20;;
5967;SDS011;3010;51.028;4.170;2023-07-30T06:31:25;17.50;;;4.47;;
5967;SDS011;3010;51.028;4.170;2023-07-30T06:33:52;20.50;;;4.33;;
5967;SDS011;3010;51.028;4.170;2023-07-30T06:36:18;12.83;;;3.43;;
5967;SDS011;3010;51.028;4.170;2023-07-30T06:38:45;17.63;;;4.80;;
5967;SDS011;3010;51.028;4.170;2023-07-30T06:41:11;17.07;;;3.93;;
5967;SDS011;3010;51.028;4.170;2023-07-30T06:43:38;10.97;;;3.53;;
5967;SDS011;3010;51.028;4.170;2023-07-30T06:46:05;16.25;;;4.10;;
5967;SDS011;3010;51.028;4.170;2023-07-30T06:48:31;17.17;;;4.20;;
5967;SDS011;3010;51.028;4.170;2023-07-30T06:50:58;13.57;;;3.40;;
5967;SDS011;3010;51.028;4.170;2023-07-30T06:53:24;14.43;;;4.03;;
5967;SDS011;3010;51.028;4.170;2023-07-30T06:55:51;13.83;;;4.03;;
5967;SDS011;3010;51.028;4.170;2023-07-30T06:58:18;15.55;;;4.10;;
5967;SDS011;3010;51.028;4.170;2023-07-30T07:00:44;11.77;;;3.73;;
5967;SDS011;3010;51.028;4.170;2023-07-30T07:03:11;14.70;;;4.00;;
5967;SDS011;3010;51.028;4.170;2023-07-30T07:05:37;13.60;;;3.93;;
5967;SDS011;3010;51.028;4.170;2023-07-30T07:08:04;14.53;;;3.80;;
5967;SDS011;3010;51.028;4.170;2023-07-30T07:10:31;17.13;;;4.30;;
5967;SDS011;3010;51.028;4.170;2023-07-30T07:12:57;16.17;;;4.30;;
5967;SDS011;3010;51.028;4.170;2023-07-30T07:15:24;17.33;;;3.50;;
5967;SDS011;3010;51.028;4.170;2023-07-30T07:17:50;11.97;;;3.40;;
5967;SDS011;3010;51.028;4.170;2023-07-30T07:20:17;16.80;;;4.27;;
5967;SDS011;3010;51.028;4.170;2023-07-30T07:22:43;15.97;;;3.60;;
5967;SDS011;3010;51.028;4.170;2023-07-30T07:25:10;17.57;;;4.00;;
5967;SDS011;3010;51.028;4.170;2023-07-30T07:27:37;11.73;;;3.70;;
5967;SDS011;3010;51.028;4.170;2023-07-30T07:30:03;10.43;;;3.20;;
5967;SDS011;3010;51.028;4.170;2023-07-30T07:32:30;13.80;;;3.73;;
5967;SDS011;3010;51.028;4.170;2023-07-30T07:34:57;14.00;;;3.27;;
5967;SDS011;3010;51.028;4.170;2023-07-30T07:37:23;10.87;;;3.50;;
5967;SDS011;3010;51.028;4.170;2023-07-30T07:39:50;12.73;;;4.17;;
5967;SDS011;3010;51.028;4.170;2023-07-30T07:42:16;10.90;;;2.63;;
5967;SDS011;3010;51.028;4.170;2023-07-30T07:44:43;7.47;;;2.97;;
5967;SDS011;3010;51.028;4.170;2023-07-30T07:47:10;13.80;;;3.47;;
5967;SDS011;3010;51.028;4.170;2023-07-30T07:49:36;9.57;;;3.00;;
5967;SDS011;3010;51.028;4.170;2023-07-30T07:52:03;7.03;;;2.80;;
5967;SDS011;3010;51.028;4.170;2023-07-30T07:54:29;12.07;;;3.20;;
5967;SDS011;3010;51.028;4.170;2023-07-30T07:56:56;11.53;;;3.93;;
5967;SDS011;3010;51.028;4.170;2023-07-30T07:59:23;13.30;;;3.60;;
5967;SDS011;3010;51.028;4.170;2023-07-30T08:01:49;10.90;;;3.63;;
5967;SDS011;3010;51.028;4.170;2023-07-30T08:04:16;12.68;;;3.40;;
5967;SDS011;3010;51.028;4.170;2023-07-30T08:06:42;9.37;;;2.90;;
5967;SDS011;3010;51.028;4.170;2023-07-30T08:09:09;10.33;;;2.93;;
5967;SDS011;3010;51.028;4.170;2023-07-30T08:11:35;11.97;;;2.77;;
5967;SDS011;3010;51.028;4.170;2023-07-30T08:14:02;9.53;;;2.53;;
5967;SDS011;3010;51.028;4.170;2023-07-30T08:16:29;9.73;;;3.33;;
5967;SDS011;3010;51.028;4.170;2023-07-30T08:18:55;12.50;;;3.30;;
5967;SDS011;3010;51.028;4.170;2023-07-30T08:21:22;11.07;;;3.30;;
5967;SDS011;3010;51.028;4.170;2023-07-30T08:23:48;9.77;;;3.22;;
5967;SDS011;3010;51.028;4.170;2023-07-30T08:26:15;10.87;;;3.27;;
5967;SDS011;3010;51.028;4.170;2023-07-30T08:28:42;8.77;;;3.10;;
5967;SDS011;3010;51.028;4.170;2023-07-30T08:31:08;6.97;;;2.50;;
5967;SDS011;3010;51.028;4.170;2023-07-30T08:33:35;11.80;;;2.67;;
5967;SDS011;3010;51.028;4.170;2023-07-30T08:36:01;6.63;;;2.67;;
5967;SDS011;3010;51.028;4.170;2023-07-30T08:38:28;8.77;;;2.73;;
5967;SDS011;3010;51.028;4.170;2023-07-30T08:40:54;3.23;;;2.00;;
5967;SDS011;3010;51.028;4.170;2023-07-30T08:43:21;10.37;;;2.23;;
5967;SDS011;3010;51.028;4.170;2023-07-30T08:45:48;10.57;;;2.77;;
5967;SDS011;3010;51.028;4.170;2023-07-30T08:48:14;8.67;;;2.80;;
5967;SDS011;3010;51.028;4.170;2023-07-30T08:50:41;8.07;;;2.70;;
5967;SDS011;3010;51.028;4.170;2023-07-30T08:53:07;9.77;;;2.50;;
5967;SDS011;3010;51.028;4.170;2023-07-30T08:55:34;3.53;;;1.70;;
5967;SDS011;3010;51.028;4.170;2023-07-30T08:58:01;3.20;;;1.87;;
5967;SDS011;3010;51.028;4.170;2023-07-30T09:00:28;3.40;;;1.80;;
5967;SDS011;3010;51.028;4.170;2023-07-30T09:02:55;3.40;;;1.70;;
5967;SDS011;3010;51.028;4.170;2023-07-30T09:05:20;4.23;;;1.90;;
5967;SDS011;3010;51.028;4.170;2023-07-30T09:07:47;4.60;;;1.33;;
5967;SDS011;3010;51.028;4.170;2023-07-30T09:10:14;6.20;;;1.77;;
5967;SDS011;3010;51.028;4.170;2023-07-30T09:12:40;4.80;;;1.97;;
5967;SDS011;3010;51.028;4.170;2023-07-30T09:15:07;4.65;;;2.10;;
5967;SDS011;3010;51.028;4.170;2023-07-30T09:17:34;6.53;;;1.77;;
5967;SDS011;3010;51.028;4.170;2023-07-30T09:20:00;5.93;;;1.80;;
5967;SDS011;3010;51.028;4.170;2023-07-30T09:22:27;3.20;;;1.90;;
5967;SDS011;3010;51.028;4.170;2023-07-30T09:24:53;6.30;;;1.73;;
5967;SDS011;3010;51.028;4.170;2023-07-30T09:27:21;5.07;;;1.87;;
5967;SDS011;3010;51.028;4.170;2023-07-30T09:29:50;8.10;;;1.93;;
5967;SDS011;3010;51.028;4.170;2023-07-30T09:32:16;7.07;;;2.10;;
5967;SDS011;3010;51.028;4.170;2023-07-30T09:34:44;9.03;;;2.40;;
5967;SDS011;3010;51.028;4.170;2023-07-30T09:37:09;11.33;;;2.40;;
5967;SDS011;3010;51.028;4.170;2023-07-30T09:39:36;6.13;;;2.43;;
5967;SDS011;3010;51.028;4.170;2023-07-30T09:42:02;4.77;;;1.90;;
5967;SDS011;3010;51.028;4.170;2023-07-30T09:44:29;3.73;;;2.13;;
5967;SDS011;3010;51.028;4.170;2023-07-30T09:46:55;8.73;;;2.23;;
5967;SDS011;3010;51.028;4.170;2023-07-30T09:49:22;7.87;;;2.33;;
5967;SDS011;3010;51.028;4.170;2023-07-30T09:51:48;7.63;;;2.43;;
5967;SDS011;3010;51.028;4.170;2023-07-30T09:54:15;11.97;;;2.40;;
5967;SDS011;3010;51.028;4.170;2023-07-30T09:56:42;6.13;;;1.97;;
5967;SDS011;3010;51.028;4.170;2023-07-30T09:59:09;7.13;;;2.40;;
5967;SDS011;3010;51.028;4.170;2023-07-30T10:01:42;8.03;;;2.50;;
5967;SDS011;3010;51.028;4.170;2023-07-30T10:04:08;4.23;;;2.00;;
5967;SDS011;3010;51.028;4.170;2023-07-30T10:06:48;8.23;;;2.20;;
5967;SDS011;3010;51.028;4.170;2023-07-30T10:09:13;8.63;;;1.90;;
5967;SDS011;3010;51.028;4.170;2023-07-30T10:11:39;6.87;;;2.22;;
5967;SDS011;3010;51.028;4.170;2023-07-30T10:14:06;5.90;;;2.13;;
5967;SDS011;3010;51.028;4.170;2023-07-30T10:16:32;5.53;;;1.80;;
5967;SDS011;3010;51.028;4.170;2023-07-30T10:18:59;3.77;;;1.80;;
5967;SDS011;3010;51.028;4.170;2023-07-30T10:21:26;5.23;;;1.70;;
5967;SDS011;3010;51.028;4.170;2023-07-30T10:24:02;6.13;;;1.80;;
5967;SDS011;3010;51.028;4.170;2023-07-30T10:26:28;5.93;;;2.00;;
5967;SDS011;3010;51.028;4.170;2023-07-30T10:29:10;6.87;;;2.00;;
5967;SDS011;3010;51.028;4.170;2023-07-30T10:31:39;5.47;;;1.93;;
5967;SDS011;3010;51.028;4.170;2023-07-30T10:34:09;7.20;;;2.03;;
5967;SDS011;3010;51.028;4.170;2023-07-30T10:36:42;5.60;;;2.03;;
5967;SDS011;3010;51.028;4.170;2023-07-30T10:39:17;6.20;;;2.00;;
5967;SDS011;3010;51.028;4.170;2023-07-30T10:41:46;6.30;;;2.27;;
5967;SDS011;3010;51.028;4.170;2023-07-30T10:44:25;5.43;;;1.90;;
5967;SDS011;3010;51.028;4.170;2023-07-30T10:46:48;5.73;;;2.40;;
5967;SDS011;3010;51.028;4.170;2023-07-30T10:49:14;4.80;;;1.70;;
5967;SDS011;3010;51.028;4.170;2023-07-30T10:51:41;4.73;;;2.07;;
5967;SDS011;3010;51.028;4.170;2023-07-30T10:54:08;4.67;;;2.20;;
5967;SDS011;3010;51.028;4.170;2023-07-30T10:56:35;3.73;;;1.80;;
5967;SDS011;3010;51.028;4.170;2023-07-30T10:59:01;5.40;;;2.30;;
5967;SDS011;3010;51.028;4.170;2023-07-30T11:01:27;3.20;;;1.63;;
5967;SDS011;3010;51.028;4.170;2023-07-30T11:03:54;4.72;;;2.03;;
5967;SDS011;3010;51.028;4.170;2023-07-30T11:06:21;7.10;;;1.80;;
5967;SDS011;3010;51.028;4.170;2023-07-30T11:08:47;4.93;;;1.60;;
5967;SDS011;3010;51.028;4.170;2023-07-30T11:11:14;4.50;;;1.40;;
5967;SDS011;3010;51.028;4.170;2023-07-30T11:13:41;6.70;;;1.50;;
5967;SDS011;3010;51.028;4.170;2023-07-30T11:16:07;4.43;;;1.57;;
5967;SDS011;3010;51.028;4.170;2023-07-30T11:18:34;5.33;;;1.50;;
5967;SDS011;3010;51.028;4.170;2023-07-30T11:21:07;5.27;;;1.53;;
5967;SDS011;3010;51.028;4.170;2023-07-30T11:23:33;4.13;;;1.40;;
5967;SDS011;3010;51.028;4.170;2023-07-30T11:26:01;3.77;;;1.50;;
5967;SDS011;3010;51.028;4.170;2023-07-30T11:28:31;3.00;;;1.77;;
5967;SDS011;3010;51.028;4.170;2023-07-30T11:31:08;4.20;;;1.43;;
5967;SDS011;3010;51.028;4.170;2023-07-30T11:33:31;4.50;;;1.40;;
5967;SDS011;3010;51.028;4.170;2023-07-30T11:35:59;5.18;;;1.62;;
5967;SDS011;3010;51.028;4.170;2023-07-30T11:38:25;6.18;;;1.80;;
5967;SDS011;3010;51.028;4.170;2023-07-30T11:40:51;7.93;;;1.77;;
5967;SDS011;3010;51.028;4.170;2023-07-30T11:43:21;2.47;;;1.37;;
5967;SDS011;3010;51.028;4.170;2023-07-30T11:45:47;4.30;;;1.60;;
5967;SDS011;3010;51.028;4.170;2023-07-30T11:48:14;7.13;;;1.67;;
5967;SDS011;3010;51.028;4.170;2023-07-30T11:50:50;3.90;;;1.30;;
5967;SDS011;3010;51.028;4.170;2023-07-30T11:53:16;5.43;;;1.27;;
5967;SDS011;3010;51.028;4.170;2023-07-30T11:55:43;3.70;;;1.60;;
5967;SDS011;3010;51.028;4.170;2023-07-30T11:58:09;4.20;;;1.60;;
5967;SDS011;3010;51.028;4.170;2023-07-30T12:00:39;4.30;;;1.40;;
5967;SDS011;3010;51.028;4.170;2023-07-30T12:03:11;5.00;;;1.70;;
5967;SDS011;3010;51.028;4.170;2023-07-30T12:05:38;4.07;;;1.60;;
5967;SDS011;3010;51.028;4.170;2023-07-30T12:08:04;5.40;;;1.50;;
5967;SDS011;3010;51.028;4.170;2023-07-30T12:10:40;1.63;;;1.43;;
5967;SDS011;3010;51.028;4.170;2023-07-30T12:13:16;3.25;;;1.50;;
5967;SDS011;3010;51.028;4.170;2023-07-30T12:15:54;3.23;;;1.40;;
5967;SDS011;3010;51.028;4.170;2023-07-30T12:18:21;6.12;;;1.50;;
5967;SDS011;3010;51.028;4.170;2023-07-30T12:20:47;3.00;;;1.50;;
5967;SDS011;3010;51.028;4.170;2023-07-30T12:23:13;4.90;;;1.40;;
5967;SDS011;3010;51.028;4.170;2023-07-30T12:25:40;4.40;;;1.60;;
5967;SDS011;3010;51.028;4.170;2023-07-30T12:28:07;3.77;;;1.40;;
5967;SDS011;3010;51.028;4.170;2023-07-30T12:30:33;2.53;;;1.60;;
5967;SDS011;3010;51.028;4.170;2023-07-30T12:33:00;5.17;;;1.43;;
5967;SDS011;3010;51.028;4.170;2023-07-30T12:35:26;3.50;;;1.40;;
5967;SDS011;3010;51.028;4.170;2023-07-30T12:37:53;3.15;;;1.30;;
5967;SDS011;3010;51.028;4.170;2023-07-30T12:40:19;5.80;;;1.30;;
5967;SDS011;3010;51.028;4.170;2023-07-30T12:42:46;3.72;;;1.58;;
5967;SDS011;3010;51.028;4.170;2023-07-30T12:45:13;3.43;;;1.30;;
5967;SDS011;3010;51.028;4.170;2023-07-30T12:47:40;3.17;;;1.50;;
5967;SDS011;3010;51.028;4.170;2023-07-30T12:50:06;3.80;;;1.37;;
5967;SDS011;3010;51.028;4.170;2023-07-30T12:52:33;2.00;;;1.50;;
5967;SDS011;3010;51.028;4.170;2023-07-30T12:54:59;2.13;;;1.30;;
5967;SDS011;3010;51.028;4.170;2023-07-30T12:57:26;4.00;;;1.40;;
5967;SDS011;3010;51.028;4.170;2023-07-30T12:59:52;5.97;;;1.50;;
5967;SDS011;3010;51.028;4.170;2023-07-30T13:02:19;2.67;;;1.27;;
5967;SDS011;3010;51.028;4.170;2023-07-30T13:04:45;2.57;;;1.20;;
5967;SDS011;3010;51.028;4.170;2023-07-30T13:07:12;3.97;;;1.52;;
5967;SDS011;3010;51.028;4.170;2023-07-30T13:09:38;4.10;;;1.27;;
5967;SDS011;3010;51.028;4.170;2023-07-30T13:12:05;3.30;;;1.40;;
5967;SDS011;3010;51.028;4.170;2023-07-30T13:14:32;4.60;;;1.50;;
5967;SDS011;3010;51.028;4.170;2023-07-30T13:16:58;6.57;;;1.80;;
5967;SDS011;3010;51.028;4.170;2023-07-30T13:19:25;2.63;;;1.37;;
5967;SDS011;3010;51.028;4.170;2023-07-30T13:21:51;2.30;;;1.50;;
5967;SDS011;3010;51.028;4.170;2023-07-30T13:24:18;5.33;;;1.80;;
5967;SDS011;3010;51.028;4.170;2023-07-30T13:26:45;3.57;;;1.73;;
5967;SDS011;3010;51.028;4.170;2023-07-30T13:29:11;7.90;;;1.83;;
5967;SDS011;3010;51.028;4.170;2023-07-30T13:31:38;10.67;;;1.50;;
5967;SDS011;3010;51.028;4.170;2023-07-30T13:34:04;5.10;;;1.87;;
5967;SDS011;3010;51.028;4.170;2023-07-30T13:36:31;4.37;;;2.13;;
5967;SDS011;3010;51.028;4.170;2023-07-30T13:38:58;4.93;;;1.77;;
5967;SDS011;3010;51.028;4.170;2023-07-30T13:41:24;3.43;;;1.93;;
5967;SDS011;3010;51.028;4.170;2023-07-30T13:43:51;4.75;;;2.08;;
5967;SDS011;3010;51.028;4.170;2023-07-30T13:46:17;5.17;;;2.10;;
5967;SDS011;3010;51.028;4.170;2023-07-30T13:48:44;4.83;;;1.67;;
5967;SDS011;3010;51.028;4.170;2023-07-30T13:51:10;3.70;;;1.87;;
5967;SDS011;3010;51.028;4.170;2023-07-30T13:53:37;1.60;;;1.50;;
5967;SDS011;3010;51.028;4.170;2023-07-30T13:56:04;5.40;;;2.10;;
5967;SDS011;3010;51.028;4.170;2023-07-30T13:58:30;5.73;;;1.90;;
5967;SDS011;3010;51.028;4.170;2023-07-30T14:00:57;4.47;;;2.03;;
5967;SDS011;3010;51.028;4.170;2023-07-30T14:03:23;5.47;;;2.07;;
5967;SDS011;3010;51.028;4.170;2023-07-30T14:05:50;3.23;;;2.03;;
5967;SDS011;3010;51.028;4.170;2023-07-30T14:08:17;4.73;;;2.20;;
5967;SDS011;3010;51.028;4.170;2023-07-30T14:10:43;5.62;;;2.45;;
5967;SDS011;3010;51.028;4.170;2023-07-30T14:13:10;4.20;;;2.20;;
5967;SDS011;3010;51.028;4.170;2023-07-30T14:15:36;7.80;;;2.80;;
5967;SDS011;3010;51.028;4.170;2023-07-30T14:18:03;3.57;;;1.90;;
5967;SDS011;3010;51.028;4.170;2023-07-30T14:20:30;4.43;;;2.22;;
5967;SDS011;3010;51.028;4.170;2023-07-30T14:22:57;5.73;;;2.13;;
5967;SDS011;3010;51.028;4.170;2023-07-30T14:25:23;5.20;;;2.27;;
5967;SDS011;3010;51.028;4.170;2023-07-30T14:27:49;4.50;;;2.07;;
5967;SDS011;3010;51.028;4.170;2023-07-30T14:30:16;6.83;;;2.37;;
5967;SDS011;3010;51.028;4.170;2023-07-30T14:32:42;5.23;;;2.27;;
5967;SDS011;3010;51.028;4.170;2023-07-30T14:35:09;6.05;;;2.60;;
5967;SDS011;3010;51.028;4.170;2023-07-30T14:37:36;4.73;;;2.27;;
5967;SDS011;3010;51.028;4.170;2023-07-30T14:40:02;6.30;;;2.50;;
5967;SDS011;3010;51.028;4.170;2023-07-30T14:42:29;7.87;;;3.00;;
5967;SDS011;3010;51.028;4.170;2023-07-30T14:44:55;9.02;;;2.85;;
5967;SDS011;3010;51.028;4.170;2023-07-30T14:47:22;5.03;;;2.60;;
5967;SDS011;3010;51.028;4.170;2023-07-30T14:49:49;4.73;;;3.10;;
5967;SDS011;3010;51.028;4.170;2023-07-30T14:52:15;6.07;;;2.57;;
5967;SDS011;3010;51.028;4.170;2023-07-30T14:54:42;7.93;;;2.70;;
5967;SDS011;3010;51.028;4.170;2023-07-30T14:57:08;7.27;;;2.63;;
5967;SDS011;3010;51.028;4.170;2023-07-30T14:59:35;8.13;;;2.90;;
5967;SDS011;3010;51.028;4.170;2023-07-30T15:02:01;4.40;;;2.77;;
5967;SDS011;3010;51.028;4.170;2023-07-30T15:04:28;5.30;;;2.87;;